Time;durP1;ratioP1;P1;durP2;ratioP2;P2;SDS_P1;SDS_P2;PMS_P1;PMS_P2;Temp;Humidity;BMP_temperature;BMP_pressure;BME280_temperature;BME280_humidity;BME280_pressure;Samples;Min_cycle;Max_cycle;Signal;HPM_P1;HPM_P2
2022/01/17 00:00:25;;;;;;;8.40;5.80;;;;;;99980.95;;;;106458;1297;62633;-31
2022/01/17 00:03:09;;;;;;;8.00;5.30;;;;;;99978.27;;;;106541;1297;62563;-30
2022/01/17 00:05:39;;;;;;;9.20;5.40;;;;;;99971.41;;;;106573;1297;62643;-30
2022/01/17 00:08:06;;;;;;;9.50;5.60;;;;;;99959.33;;;;106514;1297;62537;-30
2022/01/17 00:10:33;;;;;;;8.90;5.70;;;;;;99950.40;;;;106615;1296;64967;-30
2022/01/17 00:13:00;;;;;;;8.10;5.00;;;;;;99950.09;;;;106573;1296;62627;-31
2022/01/17 00:15:33;;;;;;;8.00;5.40;;;;;;99951.86;;;;106586;1296;62549;-31
2022/01/17 00:20:44;;;;;;;8.00;5.10;;;;;;99932.33;;;;106578;1296;62645;-39
2022/01/17 00:23:16;;;;;;;7.80;5.40;;;;;;99934.50;;;;106476;1297;66504;-39
2022/01/17 00:25:43;;;;;;;8.10;5.50;;;;;;99922.33;;;;106469;1299;62645;-30
2022/01/17 00:28:11;;;;;;;9.50;5.20;;;;;;99906.81;;;;106429;1299;62599;-30
2022/01/17 00:30:38;;;;;;;7.80;5.10;;;;;;99907.36;;;;106584;1296;62645;-39
2022/01/17 00:33:05;;;;;;;9.20;5.30;;;;;;99913.80;;;;106606;1297;62489;-40
2022/01/17 00:35:35;;;;;;;8.40;5.40;;;;;;99902.81;;;;106605;1296;66180;-39
2022/01/17 00:38:02;;;;;;;7.50;5.20;;;;;;99895.94;;;;106556;1297;62730;-38
2022/01/17 00:40:30;;;;;;;8.70;5.80;;;;;;99896.19;;;;106576;1297;62659;-39
2022/01/17 00:42:57;;;;;;;8.30;5.30;;;;;;99889.59;;;;106378;1298;62717;-39
2022/01/17 00:45:27;;;;;;;7.60;5.40;;;;;;99872.99;;;;106575;1297;62608;-30
2022/01/17 00:47:56;;;;;;;8.70;5.00;;;;;;99874.92;;;;106581;1297;67562;-30
2022/01/17 00:50:25;;;;;;;7.90;5.30;;;;;;99879.94;;;;106534;1296;62512;-30
2022/01/17 00:52:55;;;;;;;8.00;5.20;;;;;;99868.63;;;;106576;1297;62594;-30
2022/01/17 00:55:25;;;;;;;7.40;4.90;;;;;;99866.89;;;;106561;1297;63138;-39
2022/01/17 00:57:55;;;;;;;8.20;5.50;;;;;;99865.74;;;;106576;1297;62586;-39
2022/01/17 01:00:23;;;;;;;9.30;5.10;;;;;;99858.64;;;;106600;1297;65969;-30
2022/01/17 01:02:50;;;;;;;8.00;5.40;;;;;;99862.70;;;;106065;1297;517466;-31
2022/01/17 01:05:21;;;;;;;7.80;5.00;;;;;;99865.61;;;;106469;1297;62635;-31
2022/01/17 01:07:53;;;;;;;8.20;5.10;;;;;;99863.28;;;;106575;1297;62651;-30
2022/01/17 01:10:21;;;;;;;7.80;5.10;;;;;;99864.73;;;;106610;1297;62549;-39
2022/01/17 01:12:50;;;;;;;8.00;4.90;;;;;;99853.03;;;;106480;1297;66078;-40
2022/01/17 01:15:34;;;;;;;8.20;5.00;;;;;;99853.95;;;;106560;1297;62685;-31
2022/01/17 01:18:13;;;;;;;8.00;5.00;;;;;;99840.34;;;;106483;1297;62599;-30
2022/01/17 01:28:42;;;;;;;9.80;6.00;;;;;;99814.16;;;;106495;1300;62625;-30
2022/01/17 01:31:15;;;;;;;7.60;4.90;;;;;;99803.44;;;;106439;1298;62572;-30
2022/01/17 01:33:50;;;;;;;7.80;5.30;;;;;;99803.42;;;;106518;1297;62633;-38
2022/01/17 01:36:29;;;;;;;7.60;5.10;;;;;;99804.29;;;;106565;1297;62704;-40
2022/01/17 01:38:56;;;;;;;8.30;4.90;;;;;;99786.72;;;;106460;1299;68080;-30
2022/01/17 01:41:26;;;;;;;8.50;5.70;;;;;;99781.78;;;;106447;1299;62714;-31
2022/01/17 01:43:53;;;;;;;7.30;5.00;;;;;;99778.27;;;;106480;1297;62617;-31
2022/01/17 01:46:23;;;;;;;8.20;5.10;;;;;;99777.70;;;;106564;1297;62605;-30
2022/01/17 01:48:50;;;;;;;8.10;4.90;;;;;;99775.34;;;;106494;1299;62509;-31
2022/01/17 01:51:17;;;;;;;8.40;5.30;;;;;;99774.59;;;;106580;1297;64914;-31
2022/01/17 01:53:44;;;;;;;9.70;5.20;;;;;;99769.75;;;;106593;1297;63002;-40
2022/01/17 01:56:11;;;;;;;8.40;5.80;;;;;;99772.61;;;;106565;1297;62604;-40
2022/01/17 01:58:39;;;;;;;8.20;5.10;;;;;;99776.40;;;;106552;1297;62537;-30
2022/01/17 02:01:07;;;;;;;8.60;4.70;;;;;;99769.41;;;;106481;1297;62487;-30
2022/01/17 02:03:34;;;;;;;8.40;5.30;;;;;;99768.23;;;;106564;1297;64387;-38
2022/01/17 02:06:01;;;;;;;7.70;5.10;;;;;;99757.20;;;;106467;1297;62691;-39
2022/01/17 02:08:30;;;;;;;7.80;5.00;;;;;;99747.83;;;;106444;1297;62697;-31
2022/01/17 02:10:58;;;;;;;8.00;5.10;;;;;;99745.11;;;;106586;1297;62660;-32
2022/01/17 02:13:28;;;;;;;7.50;4.80;;;;;;99739.30;;;;106591;1297;62533;-34
2022/01/17 02:16:04;;;;;;;7.50;5.20;;;;;;99733.84;;;;106605;1297;64786;-40
2022/01/17 02:18:32;;;;;;;7.30;4.80;;;;;;99724.95;;;;106556;1297;62570;-30
2022/01/17 02:23:39;;;;;;;8.30;5.40;;;;;;99714.36;;;;106570;1296;62768;-45
2022/01/17 02:26:07;;;;;;;7.80;4.70;;;;;;99713.68;;;;106559;1297;62616;-40
2022/01/17 02:28:35;;;;;;;7.90;4.90;;;;;;99709.33;;;;106582;1297;66661;-30
2022/01/17 02:31:05;;;;;;;7.50;4.90;;;;;;99708.68;;;;106435;1297;62713;-33
2022/01/17 02:33:34;;;;;;;8.60;5.20;;;;;;99695.98;;;;106457;1297;62585;-39
2022/01/17 02:36:02;;;;;;;9.20;5.00;;;;;;99695.23;;;;106538;1297;62658;-38
2022/01/17 02:38:30;;;;;;;7.80;5.10;;;;;;99697.33;;;;106587;1297;62518;-38
2022/01/17 02:40:57;;;;;;;7.90;5.00;;;;;;99678.03;;;;106552;1297;66054;-37
2022/01/17 02:43:35;;;;;;;7.20;4.80;;;;;;99667.08;;;;106572;1297;62586;-30
2022/01/17 02:48:36;;;;;;;8.10;4.90;;;;;;99643.30;;;;106555;1297;62714;-36
2022/01/17 02:51:04;;;;;;;7.10;4.50;;;;;;99639.54;;;;106606;1297;62694;-30
2022/01/17 02:53:32;;;;;;;8.10;5.10;;;;;;99630.60;;;;106557;1297;64735;-34
2022/01/17 02:56:06;;;;;;;7.80;4.70;;;;;;99628.45;;;;106542;1297;62614;-36
2022/01/17 02:58:34;;;;;;;7.80;4.90;;;;;;99619.86;;;;106427;1299;62548;-30
2022/01/17 03:01:08;;;;;;;9.10;5.40;;;;;;99616.94;;;;106577;1297;62507;-30
2022/01/17 03:03:36;;;;;;;7.10;4.80;;;;;;99622.67;;;;106471;1297;62896;-38
2022/01/17 03:06:03;;;;;;;7.50;4.90;;;;;;99618.11;;;;106579;1297;65238;-39
2022/01/17 03:08:33;;;;;;;6.90;4.40;;;;;;99607.80;;;;106569;1297;62697;-31
2022/01/17 03:11:05;;;;;;;6.80;4.30;;;;;;99607.86;;;;106579;1297;62595;-30
2022/01/17 03:13:37;;;;;;;7.60;4.60;;;;;;99610.23;;;;106493;1297;62638;-39
2022/01/17 03:16:10;;;;;;;7.10;4.70;;;;;;99605.95;;;;106591;1297;62606;-38
2022/01/17 03:18:44;;;;;;;7.50;4.80;;;;;;99594.15;;;;106570;1297;67609;-40
2022/01/17 03:21:15;;;;;;;7.60;4.60;;;;;;99583.60;;;;106577;1297;62529;-43
2022/01/17 03:23:45;;;;;;;7.40;4.50;;;;;;99580.77;;;;106582;1297;62584;-43
2022/01/17 03:26:12;;;;;;;7.50;4.90;;;;;;99586.26;;;;106552;1297;62622;-44
2022/01/17 03:28:39;;;;;;;7.10;4.80;;;;;;99589.00;;;;106582;1297;62520;-40
2022/01/17 03:31:08;;;;;;;7.20;4.20;;;;;;99579.04;;;;106579;1297;65928;-39
2022/01/17 03:33:36;;;;;;;7.20;4.70;;;;;;99570.72;;;;106573;1297;62500;-31
2022/01/17 03:36:04;;;;;;;7.60;5.10;;;;;;99571.42;;;;106447;1297;62687;-30
2022/01/17 03:38:33;;;;;;;6.90;4.60;;;;;;99569.95;;;;106563;1297;62592;-30
2022/01/17 03:41:02;;;;;;;7.30;4.70;;;;;;99563.64;;;;106579;1297;62648;-31
2022/01/17 03:43:29;;;;;;;7.20;4.40;;;;;;99562.14;;;;106607;1297;66108;-31
2022/01/17 03:45:57;;;;;;;7.10;4.60;;;;;;99562.42;;;;106569;1297;62700;-31
2022/01/17 03:48:26;;;;;;;7.30;4.50;;;;;;99552.51;;;;106555;1296;62528;-31
2022/01/17 03:50:55;;;;;;;7.00;4.40;;;;;;99550.18;;;;106569;1297;62495;-30
2022/01/17 03:53:26;;;;;;;8.20;4.50;;;;;;99547.08;;;;106602;1297;62546;-31
2022/01/17 03:55:55;;;;;;;6.50;4.30;;;;;;99538.00;;;;106580;1296;66533;-32
2022/01/17 03:58:25;;;;;;;7.20;4.60;;;;;;99519.05;;;;106461;1300;62562;-30
2022/01/17 04:00:55;;;;;;;6.40;4.10;;;;;;99523.76;;;;106577;1297;62578;-30
2022/01/17 04:03:24;;;;;;;7.60;4.70;;;;;;99502.64;;;;106560;1297;62575;-30
2022/01/17 04:05:51;;;;;;;7.20;4.30;;;;;;99498.57;;;;106603;1296;62896;-32
2022/01/17 04:08:18;;;;;;;6.90;4.80;;;;;;99482.40;;;;106476;1297;66254;-30
2022/01/17 04:10:45;;;;;;;7.10;4.20;;;;;;99474.92;;;;106434;1299;62612;-30
2022/01/17 04:13:13;;;;;;;7.20;4.40;;;;;;99462.96;;;;106432;1299;62558;-31
2022/01/17 04:15:40;;;;;;;6.40;3.90;;;;;;99454.59;;;;106431;1299;62664;-40
2022/01/17 04:18:09;;;;;;;6.20;4.10;;;;;;99439.77;;;;106464;1300;62681;-39
2022/01/17 04:20:40;;;;;;;7.00;4.10;;;;;;99429.14;;;;106440;1299;66361;-31
2022/01/17 04:23:10;;;;;;;6.20;4.20;;;;;;99426.41;;;;106448;1299;62631;-31
2022/01/17 04:25:39;;;;;;;6.70;4.20;;;;;;99409.35;;;;106479;1299;62632;-40
2022/01/17 04:28:08;;;;;;;6.50;4.10;;;;;;99403.65;;;;106409;1299;62607;-39
2022/01/17 04:30:37;;;;;;;6.80;4.30;;;;;;99398.41;;;;106470;1299;62577;-32
2022/01/17 04:33:05;;;;;;;6.40;3.70;;;;;;99390.44;;;;106492;1298;67410;-31
2022/01/17 04:35:33;;;;;;;6.40;4.00;;;;;;99387.66;;;;106431;1299;62651;-30
2022/01/17 04:38:13;;;;;;;6.40;4.10;;;;;;99367.61;;;;106566;1297;62622;-30
2022/01/17 04:40:41;;;;;;;6.30;4.00;;;;;;99368.64;;;;106564;1297;62520;-40
2022/01/17 04:43:19;;;;;;;6.10;4.10;;;;;;99363.30;;;;106599;1297;62554;-39
2022/01/17 04:45:48;;;;;;;6.30;3.80;;;;;;99368.30;;;;106581;1296;65938;-31
2022/01/17 04:48:16;;;;;;;7.20;4.10;;;;;;99358.09;;;;106594;1297;62797;-31
2022/01/17 04:50:43;;;;;;;6.40;4.10;;;;;;99357.41;;;;106599;1297;62651;-39
2022/01/17 04:53:12;;;;;;;5.60;3.80;;;;;;99361.35;;;;106426;1299;62663;-39
2022/01/17 04:55:39;;;;;;;7.10;4.00;;;;;;99362.73;;;;106496;1297;62501;-39
2022/01/17 04:58:07;;;;;;;6.70;4.20;;;;;;99360.58;;;;106593;1296;66288;-40
2022/01/17 05:00:34;;;;;;;6.10;4.00;;;;;;99360.05;;;;106564;1296;62672;-41
2022/01/17 05:03:01;;;;;;;6.20;3.80;;;;;;99359.03;;;;106566;1297;62688;-40
2022/01/17 05:05:28;;;;;;;6.50;3.90;;;;;;99345.19;;;;106572;1297;62658;-30
2022/01/17 05:07:55;;;;;;;6.20;3.50;;;;;;99338.60;;;;106566;1297;62668;-31
2022/01/17 05:10:23;;;;;;;6.70;3.50;;;;;;99333.73;;;;106606;1297;66187;-33
2022/01/17 05:12:51;;;;;;;5.90;3.60;;;;;;99328.35;;;;106560;1297;62627;-30
2022/01/17 05:15:47;;;;;;;5.80;3.50;;;;;;99330.61;;;;106578;1297;62506;-31
2022/01/17 05:20:41;;;;;;;5.70;3.70;;;;;;99326.95;;;;106585;1296;62501;-39
2022/01/17 05:23:09;;;;;;;6.00;3.50;;;;;;99330.52;;;;106443;1299;66505;-39
2022/01/17 05:25:37;;;;;;;5.70;3.20;;;;;;99319.81;;;;106594;1297;62761;-31
2022/01/17 05:28:04;;;;;;;5.60;3.10;;;;;;99293.52;;;;106433;1299;62576;-30
2022/01/17 05:30:32;;;;;;;5.40;3.20;;;;;;99279.23;;;;106564;1296;62627;-39
2022/01/17 05:32:59;;;;;;;5.90;3.30;;;;;;99263.41;;;;106600;1297;62664;-40
2022/01/17 05:35:27;;;;;;;6.10;3.40;;;;;;99236.16;;;;106602;1297;64660;-30
2022/01/17 05:37:55;;;;;;;5.90;3.80;;;;;;99244.16;;;;106440;1297;62655;-30
2022/01/17 05:40:22;;;;;;;6.40;3.50;;;;;;99239.27;;;;106568;1296;62532;-38
2022/01/17 05:42:49;;;;;;;5.80;3.30;;;;;;99241.10;;;;106577;1297;62668;-39
2022/01/17 05:45:20;;;;;;;5.80;2.90;;;;;;99247.84;;;;106577;1297;62470;-31
2022/01/17 05:47:47;;;;;;;5.40;2.90;;;;;;99236.64;;;;106595;1297;65965;-30
2022/01/17 05:50:15;;;;;;;6.10;3.20;;;;;;99235.06;;;;106467;1297;62728;-40
2022/01/17 05:52:43;;;;;;;5.40;3.30;;;;;;99226.35;;;;106591;1297;62902;-41
2022/01/17 05:55:13;;;;;;;5.50;3.10;;;;;;99243.73;;;;106455;1297;62522;-40
2022/01/17 05:57:40;;;;;;;6.40;3.20;;;;;;99232.10;;;;106478;1299;62596;-40
2022/01/17 06:00:12;;;;;;;5.20;3.00;;;;;;99205.86;;;;106605;1297;67626;-43
2022/01/17 06:02:39;;;;;;;6.00;3.00;;;;;;99202.05;;;;106447;1297;62612;-40
2022/01/17 06:05:07;;;;;;;5.10;2.60;;;;;;99195.55;;;;106568;1297;62566;-40
2022/01/17 06:07:34;;;;;;;5.20;3.00;;;;;;99186.93;;;;106486;1297;62631;-41
2022/01/17 06:10:02;;;;;;;5.70;2.90;;;;;;99168.42;;;;106513;1297;62632;-31
2022/01/17 06:12:29;;;;;;;5.50;2.70;;;;;;99180.30;;;;106575;1297;67473;-32
2022/01/17 06:14:58;;;;;;;5.50;2.70;;;;;;99161.70;;;;106561;1297;63033;-31
2022/01/17 06:17:25;;;;;;;5.50;2.90;;;;;;99171.91;;;;106568;1297;62545;-32
2022/01/17 06:19:52;;;;;;;6.00;3.00;;;;;;99161.75;;;;106576;1297;62689;-40
2022/01/17 06:22:19;;;;;;;5.80;3.20;;;;;;99143.04;;;;106596;1297;63045;-40
2022/01/17 06:24:47;;;;;;;5.30;2.60;;;;;;99126.52;;;;106462;1297;66528;-31
2022/01/17 06:27:15;;;;;;;5.00;2.80;;;;;;99107.78;;;;106568;1296;62665;-31
2022/01/17 06:29:42;;;;;;;6.30;2.50;;;;;;99102.92;;;;106581;1297;62670;-39
2022/01/17 06:32:09;;;;;;;4.80;2.80;;;;;;99088.39;;;;106577;1297;62582;-40
2022/01/17 06:34:40;;;;;;;5.00;2.70;;;;;;99088.02;;;;106461;1298;62482;-31
2022/01/17 06:37:07;;;;;;;6.70;3.00;;;;;;99085.27;;;;106548;1297;66597;-32
2022/01/17 06:39:34;;;;;;;5.50;2.40;;;;;;99071.39;;;;106592;1297;62701;-41
2022/01/17 06:42:01;;;;;;;4.60;2.50;;;;;;99059.88;;;;106591;1296;62551;-41
2022/01/17 06:44:29;;;;;;;5.20;2.50;;;;;;99055.70;;;;106567;1296;63487;-41
2022/01/17 06:46:56;;;;;;;6.90;2.30;;;;;;99042.81;;;;106505;1299;62503;-39
2022/01/17 06:49:24;;;;;;;4.50;2.40;;;;;;99022.27;;;;106498;1298;66253;-41
2022/01/17 06:51:51;;;;;;;5.50;2.70;;;;;;99009.03;;;;106485;1297;62607;-31
2022/01/17 06:54:21;;;;;;;4.20;2.30;;;;;;99010.15;;;;106591;1297;62628;-41
2022/01/17 06:56:49;;;;;;;4.70;2.30;;;;;;99008.16;;;;106439;1297;62652;-40
2022/01/17 06:59:16;;;;;;;5.00;2.50;;;;;;98990.22;;;;106539;1299;62581;-31
2022/01/17 07:01:43;;;;;;;4.90;2.20;;;;;;98983.06;;;;106573;1297;66987;-32
2022/01/17 07:04:10;;;;;;;4.50;2.10;;;;;;99010.19;;;;106304;1299;62564;-39
2022/01/17 07:06:38;;;;;;;5.20;2.10;;;;;;99016.07;;;;106446;1299;62598;-40
2022/01/17 07:09:08;;;;;;;6.10;2.30;;;;;;99022.12;;;;106440;1299;62500;-39
2022/01/17 07:11:39;;;;;;;4.80;2.20;;;;;;99039.82;;;;106466;1299;62565;-38
2022/01/17 07:14:08;;;;;;;4.30;2.10;;;;;;99055.20;;;;106511;1299;67470;-40
2022/01/17 07:16:40;;;;;;;4.50;2.50;;;;;;99069.13;;;;106469;1300;62692;-38
2022/01/17 07:19:08;;;;;;;4.90;2.20;;;;;;99070.18;;;;106513;1298;62667;-31
2022/01/17 07:21:35;;;;;;;5.30;2.10;;;;;;99054.84;;;;106438;1299;62677;-31
2022/01/17 07:24:03;;;;;;;4.60;2.00;;;;;;99031.47;;;;106510;1299;62533;-31
2022/01/17 07:26:30;;;;;;;4.70;2.10;;;;;;99013.39;;;;106506;1299;66547;-32
2022/01/17 07:28:57;;;;;;;4.30;1.90;;;;;;99023.64;;;;106472;1299;62703;-41
2022/01/17 07:31:27;;;;;;;4.60;2.00;;;;;;99008.06;;;;106481;1299;62497;-39
2022/01/17 07:33:55;;;;;;;4.90;1.90;;;;;;98997.18;;;;106454;1299;62661;-31
2022/01/17 07:36:22;;;;;;;4.10;2.00;;;;;;98987.62;;;;106452;1299;62526;-31
2022/01/17 07:38:49;;;;;;;4.40;2.10;;;;;;98958.61;;;;106474;1299;66501;-41
2022/01/17 07:41:17;;;;;;;4.60;1.70;;;;;;98936.19;;;;106459;1299;62682;-41
2022/01/17 07:43:44;;;;;;;3.40;1.70;;;;;;98934.24;;;;106430;1299;62575;-41
2022/01/17 07:46:23;;;;;;;4.30;1.90;;;;;;98905.52;;;;106453;1299;62607;-32
2022/01/17 07:48:59;;;;;;;4.30;1.80;;;;;;98909.30;;;;106510;1298;62595;-31
2022/01/17 07:51:27;;;;;;;3.70;1.70;;;;;;98884.81;;;;106450;1300;67207;-38
2022/01/17 07:53:58;;;;;;;3.60;1.60;;;;;;98871.83;;;;106432;1299;62602;-31
2022/01/17 07:56:25;;;;;;;4.10;1.50;;;;;;98844.97;;;;106428;1299;62677;-31
2022/01/17 07:58:53;;;;;;;4.10;1.90;;;;;;98833.95;;;;106498;1299;62613;-40
2022/01/17 08:01:22;;;;;;;4.00;1.60;;;;;;98836.43;;;;106522;1298;62570;-41
2022/01/17 08:03:49;;;;;;;4.00;1.60;;;;;;98813.05;;;;106503;1299;65306;-41
2022/01/17 08:06:17;;;;;;;4.30;1.90;;;;;;98797.48;;;;106492;1299;62666;-41
2022/01/17 08:08:48;;;;;;;3.50;1.40;;;;;;98811.59;;;;106426;1299;62545;-32
2022/01/17 08:11:15;;;;;;;3.10;1.30;;;;;;98803.73;;;;106428;1299;62577;-32
2022/01/17 08:13:42;;;;;;;4.70;1.90;;;;;;98806.67;;;;106452;1299;62552;-35
2022/01/17 08:16:10;;;;;;;4.40;1.60;;;;;;98815.88;;;;106480;1300;66035;-34
2022/01/17 08:18:40;;;;;;;4.10;1.80;;;;;;98802.21;;;;106508;1300;62647;-33
2022/01/17 08:21:07;;;;;;;4.00;1.60;;;;;;98811.05;;;;106522;1298;62653;-34
2022/01/17 08:23:36;;;;;;;4.20;1.70;;;;;;98814.61;;;;106586;1297;62543;-35
2022/01/17 08:26:03;;;;;;;3.70;1.70;;;;;;98802.05;;;;106581;1297;62608;-43
2022/01/17 08:28:33;;;;;;;3.80;1.50;;;;;;98781.16;;;;106594;1297;64959;-42
2022/01/17 08:31:00;;;;;;;4.20;1.70;;;;;;98791.17;;;;106507;1296;63167;-42
2022/01/17 08:33:27;;;;;;;4.90;1.60;;;;;;98772.79;;;;106455;1299;62598;-43
2022/01/17 08:35:54;;;;;;;4.90;1.70;;;;;;98767.15;;;;106454;1297;62646;-43
2022/01/17 08:38:23;;;;;;;4.60;1.70;;;;;;98792.88;;;;106519;1298;62518;-41
2022/01/17 08:40:50;;;;;;;4.30;1.70;;;;;;98770.65;;;;106405;1299;66161;-40
2022/01/17 08:43:17;;;;;;;4.00;1.80;;;;;;98764.59;;;;106429;1299;62715;-43
2022/01/17 08:45:45;;;;;;;4.90;1.40;;;;;;98768.94;;;;106520;1298;62624;-41
2022/01/17 08:48:12;;;;;;;3.50;1.30;;;;;;98766.77;;;;106498;1300;62753;-40
2022/01/17 08:50:41;;;;;;;3.20;1.30;;;;;;98764.86;;;;106533;1299;62604;-38
2022/01/17 08:53:10;;;;;;;3.30;1.40;;;;;;98805.84;;;;106506;1300;67359;-34
2022/01/17 08:55:37;;;;;;;3.20;1.10;;;;;;98947.96;;;;106510;1299;62585;-43
2022/01/17 08:58:06;;;;;;;3.60;1.20;;;;;;99046.38;;;;106486;1298;62598;-41
2022/01/17 09:00:33;;;;;;;4.10;1.30;;;;;;99091.61;;;;106589;1296;62640;-43
2022/01/17 09:03:01;;;;;;;4.00;1.40;;;;;;99093.16;;;;106354;1297;299601;-43
2022/01/17 09:05:31;;;;;;;4.00;1.20;;;;;;99090.64;;;;106450;1299;65957;-43
2022/01/17 09:07:59;;;;;;;3.30;1.10;;;;;;99098.44;;;;106422;1299;62698;-45
2022/01/17 09:10:28;;;;;;;3.00;1.10;;;;;;99092.52;;;;106437;1299;62703;-44
2022/01/17 09:12:57;;;;;;;3.90;1.10;;;;;;99089.63;;;;106495;1299;62984;-44
2022/01/17 09:15:24;;;;;;;3.10;1.10;;;;;;99103.92;;;;106511;1300;62648;-42
2022/01/17 09:17:52;;;;;;;3.40;1.20;;;;;;99112.05;;;;106434;1299;64966;-42
2022/01/17 09:20:19;;;;;;;3.60;1.20;;;;;;99111.80;;;;106412;1299;62693;-38
2022/01/17 09:22:47;;;;;;;3.20;1.20;;;;;;99110.52;;;;106440;1299;62983;-41
2022/01/17 09:25:14;;;;;;;3.10;1.10;;;;;;99129.87;;;;106496;1300;62650;-44
2022/01/17 09:27:42;;;;;;;3.20;1.10;;;;;;99127.21;;;;106514;1298;62596;-44
2022/01/17 09:30:14;;;;;;;3.80;1.30;;;;;;99131.41;;;;106422;1299;66331;-43
2022/01/17 09:32:42;;;;;;;5.40;1.30;;;;;;99136.03;;;;106506;1299;62693;-41
2022/01/17 09:35:11;;;;;;;3.80;1.20;;;;;;99140.99;;;;106491;1299;62583;-43
2022/01/17 09:37:40;;;;;;;3.70;1.30;;;;;;99148.80;;;;106482;1297;62999;-46
2022/01/17 09:40:09;;;;;;;4.70;1.40;;;;;;99149.20;;;;106582;1297;62539;-43
2022/01/17 09:42:38;;;;;;;5.60;1.40;;;;;;99131.67;;;;106419;1295;66601;-40
2022/01/17 09:45:10;;;;;;;5.70;1.30;;;;;;99129.56;;;;106575;1296;62629;-34
2022/01/17 09:47:39;;;;;;;4.00;1.40;;;;;;99115.95;;;;106487;1299;62578;-33
2022/01/17 09:50:17;;;;;;;4.60;1.30;;;;;;99128.63;;;;106557;1297;62646;-34
2022/01/17 09:52:51;;;;;;;4.50;1.50;;;;;;99111.95;;;;106597;1297;62569;-34
2022/01/17 09:55:22;;;;;;;4.10;1.20;;;;;;99126.89;;;;106573;1296;65869;-39
2022/01/17 09:57:54;;;;;;;5.00;1.60;;;;;;99109.73;;;;106510;1298;62679;-39
2022/01/17 10:00:28;;;;;;;4.60;1.40;;;;;;99113.95;;;;106504;1299;62613;-39
2022/01/17 10:03:05;;;;;;;4.60;1.30;;;;;;99111.98;;;;106575;1297;62570;-39
2022/01/17 10:05:36;;;;;;;3.90;1.40;;;;;;99100.67;;;;106511;1298;62553;-34
2022/01/17 10:08:13;;;;;;;5.40;1.90;;;;;;99123.70;;;;106559;1297;65924;-34
2022/01/17 10:11:01;;;;;;;5.10;1.70;;;;;;99145.49;;;;106492;1298;62663;-34
2022/01/17 10:13:37;;;;;;;5.00;1.70;;;;;;99145.57;;;;106557;1297;62637;-37
2022/01/17 10:16:19;;;;;;;5.40;1.50;;;;;;99149.49;;;;106430;1296;62601;-39
2022/01/17 10:19:04;;;;;;;6.10;1.80;;;;;;99147.73;;;;106496;1297;62637;-34
2022/01/17 10:21:36;;;;;;;4.60;1.50;;;;;;99159.48;;;;106573;1296;66344;-34
2022/01/17 10:27:03;;;;;;;6.70;1.80;;;;;;99148.70;;;;106526;1299;62591;-34
2022/01/17 10:35:32;;;;;;;4.30;1.50;;;;;;99162.73;;;;106508;1297;67235;-33
2022/01/17 10:38:05;;;;;;;4.80;1.60;;;;;;99160.20;;;;106555;1297;62639;-40
2022/01/17 10:40:49;;;;;;;5.30;1.50;;;;;;99155.87;;;;106441;1299;62556;-33
2022/01/17 10:43:35;;;;;;;5.10;1.80;;;;;;99171.45;;;;106398;1299;62677;-34
2022/01/17 10:46:08;;;;;;;5.30;1.80;;;;;;99174.14;;;;106450;1299;62562;-35
2022/01/17 10:48:39;;;;;;;;;;;;;;99197.91;;;;106475;1299;67735;-35
2022/01/17 10:51:08;;;;;;;3.90;1.50;;;;;;99207.95;;;;106438;1299;62624;-34
2022/01/17 10:53:39;;;;;;;5.70;1.90;;;;;;99227.66;;;;106442;1298;62605;-45
2022/01/17 10:56:10;;;;;;;4.70;1.40;;;;;;99213.16;;;;106240;1299;62639;-44
2022/01/17 10:58:39;;;;;;;4.50;1.70;;;;;;99202.11;;;;106449;1299;62561;-42
2022/01/17 11:01:16;;;;;;;6.20;1.70;;;;;;99200.90;;;;106512;1297;66603;-42
2022/01/17 11:03:44;;;;;;;4.10;1.50;;;;;;99223.42;;;;106522;1298;62625;-42
2022/01/17 11:06:15;;;;;;;6.30;1.50;;;;;;99246.54;;;;106413;1300;62740;-42
2022/01/17 11:08:45;;;;;;;6.50;1.60;;;;;;99253.29;;;;106503;1299;62662;-46
2022/01/17 11:11:12;;;;;;;5.50;1.60;;;;;;99256.20;;;;106454;1299;62595;-46
2022/01/17 11:13:48;;;;;;;4.10;1.60;;;;;;99262.04;;;;106516;1299;65315;-42
2022/01/17 11:16:20;;;;;;;5.10;1.70;;;;;;99258.98;;;;106451;1299;62521;-39
2022/01/17 11:18:58;;;;;;;5.10;1.50;;;;;;99259.73;;;;106457;1297;62527;-38
2022/01/17 11:21:26;;;;;;;4.00;1.50;;;;;;99269.41;;;;106499;1298;62618;-38
2022/01/17 11:23:54;;;;;;;4.20;1.30;;;;;;99265.63;;;;106582;1297;63040;-39
2022/01/17 11:26:21;;;;;;;4.10;1.60;;;;;;99266.73;;;;106501;1299;66508;-34
2022/01/17 11:28:54;;;;;;;4.70;1.40;;;;;;99270.16;;;;106480;1299;62714;-36
2022/01/17 11:31:23;;;;;;;4.70;1.50;;;;;;99273.00;;;;106484;1298;62589;-36
2022/01/17 11:33:50;;;;;;;4.20;1.50;;;;;;99279.52;;;;106472;1299;62602;-37
2022/01/17 11:36:18;;;;;;;4.20;1.40;;;;;;99273.52;;;;106516;1298;62988;-38
2022/01/17 11:38:50;;;;;;;4.60;1.50;;;;;;99290.05;;;;106474;1298;65145;-38
2022/01/17 11:41:35;;;;;;;3.50;1.20;;;;;;99305.69;;;;106454;1297;62756;-42
2022/01/17 11:44:07;;;;;;;4.10;1.40;;;;;;99314.85;;;;106560;1296;62702;-43
2022/01/17 11:46:48;;;;;;;4.50;1.50;;;;;;99327.63;;;;106553;1296;62490;-41
2022/01/17 11:49:26;;;;;;;3.90;1.30;;;;;;99337.59;;;;106595;1297;62581;-36
2022/01/17 11:51:54;;;;;;;3.60;1.40;;;;;;99326.75;;;;106595;1296;67765;-35
2022/01/17 11:54:30;;;;;;;3.60;1.30;;;;;;99334.05;;;;106491;1299;62671;-38
2022/01/17 11:57:02;;;;;;;4.90;1.60;;;;;;99335.97;;;;106573;1296;62611;-39
2022/01/17 11:59:39;;;;;;;4.40;1.40;;;;;;99346.30;;;;106561;1297;62466;-35
2022/01/17 12:02:24;;;;;;;4.30;1.30;;;;;;99370.77;;;;106570;1296;62604;-34
2022/01/17 12:05:17;;;;;;;3.60;1.10;;;;;;99381.54;;;;106561;1297;66432;-43
2022/01/17 12:07:50;;;;;;;4.50;1.20;;;;;;99391.42;;;;106323;1299;62788;-38
2022/01/17 12:10:22;;;;;;;3.50;1.30;;;;;;99408.84;;;;106507;1299;62546;-34
2022/01/17 12:13:11;;;;;;;4.60;1.80;;;;;;99415.84;;;;106430;1299;62686;-34
2022/01/17 12:16:06;;;;;;;4.30;1.60;;;;;;99430.30;;;;106506;1299;62555;-37
2022/01/17 12:19:07;;;;;;;3.30;1.30;;;;;;99427.56;;;;106524;1297;67418;-37
2022/01/17 12:21:40;;;;;;;4.30;1.30;;;;;;99438.08;;;;106487;1299;62609;-36
2022/01/17 12:24:17;;;;;;;4.90;1.40;;;;;;99436.88;;;;106468;1299;62619;-44
2022/01/17 12:27:05;;;;;;;3.80;1.10;;;;;;99447.30;;;;106544;1297;62546;-34
2022/01/17 12:29:52;;;;;;;3.40;1.40;;;;;;99440.65;;;;106464;1297;62582;-35
2022/01/17 12:32:25;;;;;;;4.00;1.40;;;;;;99449.60;;;;106487;1299;66383;-33
2022/01/17 12:35:09;;;;;;;4.50;1.30;;;;;;99462.25;;;;106494;1299;62659;-35
2022/01/17 12:38:04;;;;;;;4.60;1.70;;;;;;99465.65;;;;106484;1298;62649;-34
2022/01/17 12:40:37;;;;;;;5.30;2.00;;;;;;99460.80;;;;106482;1297;62680;-35
2022/01/17 12:43:11;;;;;;;5.90;2.20;;;;;;99458.89;;;;106560;1297;62604;-34
2022/01/17 12:45:49;;;;;;;4.70;1.80;;;;;;99467.41;;;;106581;1296;66499;-38
2022/01/17 12:48:20;;;;;;;5.50;2.00;;;;;;99478.73;;;;106569;1297;62705;-35
2022/01/17 12:50:49;;;;;;;4.80;1.80;;;;;;99481.05;;;;106419;1299;62954;-38
2022/01/17 12:53:21;;;;;;;5.30;2.00;;;;;;99485.50;;;;106567;1297;62466;-35
2022/01/17 12:55:55;;;;;;;4.80;2.00;;;;;;99492.69;;;;106571;1297;62594;-36
2022/01/17 12:58:32;;;;;;;6.10;1.90;;;;;;99505.02;;;;106462;1297;67062;-37
2022/01/17 13:01:11;;;;;;;4.00;1.50;;;;;;99508.91;;;;106565;1297;63006;-38
2022/01/17 13:03:43;;;;;;;5.80;1.70;;;;;;99503.06;;;;106450;1297;62665;-32
2022/01/17 13:06:15;;;;;;;4.20;1.40;;;;;;99493.20;;;;106565;1297;62689;-35
2022/01/17 13:08:50;;;;;;;4.10;1.40;;;;;;99506.48;;;;106433;1299;62664;-37
2022/01/17 13:11:22;;;;;;;4.20;1.50;;;;;;99522.04;;;;106438;1298;67755;-37
2022/01/17 13:14:01;;;;;;;4.00;1.60;;;;;;99526.99;;;;106499;1296;62656;-37
2022/01/17 13:16:40;;;;;;;4.50;1.30;;;;;;99525.76;;;;106462;1297;62745;-34
2022/01/17 13:19:10;;;;;;;5.10;1.40;;;;;;99547.10;;;;106468;1297;62650;-34
2022/01/17 13:21:40;;;;;;;4.10;1.30;;;;;;99558.70;;;;106565;1297;62632;-33
2022/01/17 13:24:16;;;;;;;4.20;1.50;;;;;;99572.30;;;;106655;1295;64599;-35
2022/01/17 13:27:06;;;;;;;3.30;1.40;;;;;;99579.24;;;;106564;1297;62673;-40
2022/01/17 13:29:43;;;;;;;3.70;1.40;;;;;;99590.65;;;;106632;1296;62506;-33
2022/01/17 13:32:12;;;;;;;4.50;1.40;;;;;;99595.30;;;;106564;1296;62660;-38
2022/01/17 13:34:41;;;;;;;5.00;1.60;;;;;;99587.89;;;;106668;1297;62518;-32
2022/01/17 13:37:15;;;;;;;3.70;1.30;;;;;;99592.46;;;;106593;1296;65970;-32
2022/01/17 13:39:42;;;;;;;4.30;1.30;;;;;;99592.14;;;;106560;1297;62691;-32
2022/01/17 13:42:09;;;;;;;5.00;1.40;;;;;;99592.68;;;;106545;1297;62571;-34